createdAt,value
2023-05-06T00:02:12.226Z,101667.31
2023-05-06T00:04:41.081Z,101668.38
2023-05-06T00:07:09.001Z,101672.16
2023-05-06T00:09:36.905Z,101668.69
2023-05-06T00:12:05.583Z,101665.06
2023-05-06T00:14:34.893Z,101671.97
2023-05-06T00:17:02.788Z,101673.75
2023-05-06T00:19:30.695Z,101674.56
2023-05-06T00:21:58.654Z,101665.28
2023-05-06T00:24:26.594Z,101669.31
2023-05-06T00:26:54.536Z,101666.06
2023-05-06T00:29:22.554Z,101666.91
2023-05-06T00:31:51.916Z,101654.81
2023-05-06T00:34:19.888Z,101663.44
2023-05-06T00:36:47.778Z,101666.94
2023-05-06T00:39:16.369Z,101668.47
2023-05-06T00:41:44.284Z,101672.84
2023-05-06T00:44:12.208Z,101673.91
2023-05-06T00:46:40.662Z,101675.13
2023-05-06T00:49:09.985Z,101682.00
2023-05-06T00:51:37.962Z,101677.50
2023-05-06T00:54:06.524Z,101671.41
2023-05-06T00:56:34.442Z,101673.41
2023-05-06T00:59:02.411Z,101674.66
2023-05-06T01:01:32.193Z,101670.00
2023-05-06T01:04:00.323Z,101669.53
2023-05-06T01:06:37.784Z,101668.63
2023-05-06T01:09:11.675Z,101671.38
2023-05-06T01:11:42.968Z,101670.06
2023-05-06T01:14:15.972Z,101664.00
2023-05-06T01:16:44.474Z,101662.94
2023-05-06T01:19:19.390Z,101659.03
2023-05-06T01:21:49.842Z,101656.88
2023-05-06T01:24:19.107Z,101659.50
2023-05-06T01:26:47.001Z,101659.16
2023-05-06T01:29:15.049Z,101661.81
2023-05-06T01:31:46.910Z,101657.97
2023-05-06T01:34:17.222Z,101652.47
2023-05-06T01:36:53.739Z,101659.28
2023-05-06T01:39:27.538Z,101647.72
2023-05-06T01:41:57.378Z,101650.78
2023-05-06T01:44:26.475Z,101656.66
2023-05-06T01:46:55.261Z,101659.97
2023-05-06T01:49:23.779Z,101651.53
2023-05-06T01:51:52.496Z,101662.59
2023-05-06T01:54:20.575Z,101663.44
2023-05-06T01:56:49.885Z,101663.41
2023-05-06T01:59:17.774Z,101662.59
2023-05-06T02:01:45.806Z,101658.38
2023-05-06T02:04:13.796Z,101664.03
2023-05-06T02:06:42.129Z,101660.63
2023-05-06T02:09:10.074Z,101662.47
2023-05-06T02:11:37.963Z,101665.00
2023-05-06T02:14:07.243Z,101661.34
2023-05-06T02:16:35.240Z,101655.75
2023-05-06T02:19:03.403Z,101651.06
2023-05-06T02:21:32.060Z,101657.44
2023-05-06T02:23:59.961Z,101655.88
2023-05-06T02:26:27.865Z,101657.63
2023-05-06T02:28:55.811Z,101643.47
2023-05-06T02:31:25.165Z,101646.88
2023-05-06T02:33:53.077Z,101651.06
2023-05-06T02:36:21.026Z,101646.59
2023-05-06T02:38:48.932Z,101643.00
2023-05-06T02:41:16.846Z,101644.72
2023-05-06T02:43:44.772Z,101637.88
2023-05-06T02:46:12.748Z,101643.63
2023-05-06T02:48:42.050Z,101635.72
2023-05-06T02:51:09.949Z,101639.25
2023-05-06T02:53:37.873Z,101641.44
2023-05-06T02:56:06.359Z,101637.94
2023-05-06T02:58:34.258Z,101638.78
2023-05-06T03:01:02.217Z,101638.63
2023-05-06T03:03:30.140Z,101647.84
2023-05-06T03:05:59.420Z,101642.28
2023-05-06T03:08:27.357Z,101640.97
2023-05-06T03:10:55.355Z,101632.31
2023-05-06T03:13:23.378Z,101635.78
2023-05-06T03:15:53.836Z,101631.19
2023-05-06T03:18:21.928Z,101629.44
2023-05-06T03:20:50.389Z,101619.81
2023-05-06T03:23:19.698Z,101623.47
2023-05-06T03:25:47.610Z,101614.47
2023-05-06T03:28:15.519Z,101618.81
2023-05-06T03:30:43.433Z,101616.03
2023-05-06T03:33:11.355Z,101614.00
2023-05-06T03:35:40.148Z,101626.56
2023-05-06T03:38:08.193Z,101636.06
2023-05-06T03:40:37.571Z,101635.50
2023-05-06T03:43:05.493Z,101637.78
2023-05-06T03:45:33.543Z,101630.88
2023-05-06T03:48:01.509Z,101632.97
2023-05-06T03:50:29.406Z,101632.59
2023-05-06T03:52:57.336Z,101626.88
2023-05-06T03:55:25.335Z,101629.59
2023-05-06T03:57:54.657Z,101626.25
2023-05-06T04:00:22.819Z,101632.78
2023-05-06T04:02:50.791Z,101631.06
2023-05-06T04:05:18.999Z,101625.94
2023-05-06T04:07:47.006Z,101632.31
2023-05-06T04:10:14.914Z,101634.78
2023-05-06T04:12:42.861Z,101636.97
2023-05-06T04:15:12.945Z,101645.16
2023-05-06T04:17:41.121Z,101641.94
2023-05-06T04:20:11.434Z,101646.88
2023-05-06T04:22:39.623Z,101645.13
2023-05-06T04:25:09.028Z,101647.53
2023-05-06T04:27:37.214Z,101644.31
2023-05-06T04:30:05.546Z,101655.25
2023-05-06T04:32:35.142Z,101651.59
2023-05-06T04:35:03.934Z,101658.03
2023-05-06T04:37:31.836Z,101665.16
2023-05-06T04:39:59.732Z,101671.66
2023-05-06T04:42:27.650Z,101688.59
2023-05-06T04:44:55.927Z,101682.75
2023-05-06T04:47:23.864Z,101684.88
2023-05-06T04:49:53.176Z,101683.34
2023-05-06T04:52:21.160Z,101679.03
2023-05-06T04:54:49.059Z,101686.81
2023-05-06T04:57:16.959Z,101683.00
2023-05-06T04:59:44.867Z,101692.44
2023-05-06T05:02:13.056Z,101691.13
2023-05-06T05:04:41.359Z,101692.59
2023-05-06T05:07:10.789Z,101694.25
2023-05-06T05:09:38.706Z,101698.53
2023-05-06T05:12:07.096Z,101695.97
2023-05-06T05:14:34.997Z,101700.69
2023-05-06T05:17:02.983Z,101702.88
2023-05-06T05:19:30.915Z,101701.38
2023-05-06T05:21:58.836Z,101710.00
2023-05-06T05:24:31.135Z,101710.00
2023-05-06T05:26:59.073Z,101706.53
2023-05-06T05:29:26.969Z,101710.56
2023-05-06T05:31:54.829Z,101706.91
2023-05-06T05:34:22.748Z,101705.63
2023-05-06T05:36:50.638Z,101709.25
2023-05-06T05:39:18.556Z,101713.75
2023-05-06T05:41:47.802Z,101708.34
2023-05-06T05:44:15.779Z,101711.34
2023-05-06T05:46:44.078Z,101712.84
2023-05-06T05:49:12.137Z,101716.53
2023-05-06T05:51:40.049Z,101716.94
2023-05-06T05:54:07.970Z,101718.19
2023-05-06T05:56:36.045Z,101722.47
2023-05-06T05:59:05.317Z,101720.19
2023-05-06T06:01:33.221Z,101724.22
2023-05-06T06:04:01.342Z,101723.31
2023-05-06T06:06:29.471Z,101722.25
2023-05-06T06:08:57.406Z,101722.66
2023-05-06T06:11:26.920Z,101721.16
2023-05-06T06:13:54.992Z,101730.81
2023-05-06T06:16:24.470Z,101731.63
2023-05-06T06:18:52.459Z,101731.63
2023-05-06T06:21:20.395Z,101733.19
2023-05-06T06:23:48.316Z,101735.69
2023-05-06T06:26:16.236Z,101740.19
2023-05-06T06:28:44.849Z,101739.97
2023-05-06T06:31:12.963Z,101732.44
2023-05-06T06:33:42.274Z,101738.00
2023-05-06T06:36:10.719Z,101748.44
2023-05-06T06:38:38.696Z,101756.16
2023-05-06T06:41:06.704Z,101764.66
2023-05-06T06:43:34.641Z,101759.88
2023-05-06T06:46:02.657Z,101770.19
2023-05-06T06:48:30.641Z,101766.25
2023-05-06T06:50:59.966Z,101767.53
2023-05-06T06:53:27.940Z,101764.94
2023-05-06T06:55:55.846Z,101770.50
2023-05-06T06:58:23.730Z,101771.13
2023-05-06T07:00:51.701Z,101770.50
2023-05-06T07:03:19.864Z,101765.31
2023-05-06T07:05:47.817Z,101770.50
2023-05-06T07:08:18.131Z,101776.09
2023-05-06T07:10:46.044Z,101763.22
2023-05-06T07:13:13.985Z,101770.34
2023-05-06T07:15:41.942Z,101765.91
2023-05-06T07:18:10.891Z,101778.66
2023-05-06T07:20:38.921Z,101773.91
2023-05-06T07:23:06.814Z,101778.91
2023-05-06T07:25:36.083Z,101780.69
2023-05-06T07:28:03.992Z,101774.91
2023-05-06T07:30:31.939Z,101785.00
2023-05-06T07:33:00.013Z,101785.78
2023-05-06T07:35:28.115Z,101789.81
2023-05-06T07:37:56.033Z,101789.19
2023-05-06T07:40:24.043Z,101793.84
2023-05-06T07:42:53.313Z,101793.38
2023-05-06T07:45:23.493Z,101808.78
2023-05-06T07:47:51.511Z,101810.94
2023-05-06T07:50:19.547Z,101808.31
2023-05-06T07:52:47.436Z,101809.19
2023-05-06T07:55:15.334Z,101809.97
2023-05-06T07:57:43.248Z,101804.47
2023-05-06T08:00:13.455Z,101803.53
2023-05-06T08:02:44.454Z,101806.94
2023-05-06T08:05:13.024Z,101809.13
2023-05-06T08:07:41.781Z,101811.63
2023-05-06T08:10:10.684Z,101808.97
2023-05-06T08:12:38.843Z,101822.25
2023-05-06T08:15:08.175Z,101819.69
2023-05-06T08:17:37.632Z,101817.53
2023-05-06T08:20:06.266Z,101823.91
2023-05-06T08:22:34.247Z,101822.88
2023-05-06T08:25:02.270Z,101828.16
2023-05-06T08:27:30.229Z,101828.56
2023-05-06T08:29:58.118Z,101836.28
2023-05-06T08:32:26.112Z,101836.72
2023-05-06T08:34:56.080Z,101835.09
2023-05-06T08:37:24.017Z,101837.16
2023-05-06T08:39:51.936Z,101840.16
2023-05-06T08:42:19.870Z,101847.16
2023-05-06T08:44:48.557Z,101846.75
2023-05-06T08:47:16.437Z,101844.25
2023-05-06T08:49:44.363Z,101851.56
2023-05-06T08:52:13.680Z,101849.72
2023-05-06T08:54:42.463Z,101857.16
2023-05-06T08:57:13.372Z,101849.25
2023-05-06T08:59:41.629Z,101860.09
2023-05-06T09:02:11.352Z,101856.84
2023-05-06T09:04:39.730Z,101864.50
2023-05-06T09:07:07.666Z,101868.19
2023-05-06T09:09:36.992Z,101865.69
2023-05-06T09:12:07.091Z,101862.13
2023-05-06T09:14:35.035Z,101864.06
2023-05-06T09:17:03.217Z,101871.94
2023-05-06T09:19:31.244Z,101874.56
2023-05-06T09:21:59.307Z,101867.88
2023-05-06T09:24:27.438Z,101870.81
2023-05-06T09:26:57.443Z,101863.50
2023-05-06T09:29:25.344Z,101861.97
2023-05-06T09:31:55.077Z,101864.44
2023-05-06T09:34:23.431Z,101869.97
2023-05-06T09:36:53.725Z,101870.03
2023-05-06T09:39:26.832Z,101868.34
2023-05-06T09:41:56.323Z,101877.03
2023-05-06T09:44:26.091Z,101878.81
2023-05-06T09:46:54.017Z,101872.91
2023-05-06T09:49:21.937Z,101868.34
2023-05-06T09:51:51.729Z,101876.78
2023-05-06T09:54:19.697Z,101877.16
2023-05-06T09:56:48.570Z,101874.56
2023-05-06T09:59:18.685Z,101877.84
2023-05-06T10:01:47.089Z,101880.13
2023-05-06T10:04:16.793Z,101875.28
2023-05-06T10:06:45.927Z,101875.88
2023-05-06T10:09:14.687Z,101880.22
2023-05-06T10:11:42.871Z,101878.47
2023-05-06T10:14:11.158Z,101881.94
2023-05-06T10:16:41.366Z,101879.72
2023-05-06T10:19:09.644Z,101875.09
2023-05-06T10:21:40.779Z,101880.84
2023-05-06T10:24:12.490Z,101875.09
2023-05-06T10:26:40.933Z,101875.34
2023-05-06T10:29:11.016Z,101872.50
2023-05-06T10:31:46.284Z,101873.75
2023-05-06T10:34:14.240Z,101868.91
2023-05-06T10:36:44.096Z,101865.81
2023-05-06T10:39:14.304Z,101877.50
2023-05-06T10:41:42.322Z,101869.16
2023-05-06T10:44:10.316Z,101868.81
2023-05-06T10:47:00.586Z,101873.28
2023-05-06T10:49:29.170Z,101871.00
2023-05-06T10:52:14.295Z,101875.03
2023-05-06T10:54:49.628Z,101871.97
2023-05-06T10:57:17.710Z,101873.81
2023-05-06T10:59:48.935Z,101870.75
2023-05-06T11:02:21.385Z,101874.28
2023-05-06T11:05:01.139Z,101878.56
2023-05-06T11:07:29.112Z,101874.28
2023-05-06T11:09:58.734Z,101883.06
2023-05-06T11:12:46.343Z,101872.22
2023-05-06T11:15:36.425Z,101884.44
2023-05-06T11:18:44.187Z,101885.84
2023-05-06T11:21:40.162Z,101884.78
2023-05-06T11:24:12.263Z,101882.81
2023-05-06T11:26:44.256Z,101876.50
2023-05-06T11:29:12.353Z,101881.13
2023-05-06T11:31:42.159Z,101881.88
2023-05-06T11:34:13.338Z,101892.59
2023-05-06T11:36:49.287Z,101881.13
2023-05-06T11:39:17.185Z,101888.69
2023-05-06T11:41:45.153Z,101889.78
2023-05-06T11:44:14.779Z,101882.81
2023-05-06T11:46:45.055Z,101888.94
2023-05-06T11:49:15.983Z,101898.06
2023-05-06T11:51:43.880Z,101900.75
2023-05-06T11:54:12.282Z,101893.06
2023-05-06T11:56:45.923Z,101895.63
2023-05-06T11:59:13.957Z,101904.06
2023-05-06T12:01:45.966Z,101908.34
2023-05-06T12:04:15.375Z,101903.94
2023-05-06T12:06:43.339Z,101909.78
2023-05-06T12:09:13.268Z,101901.25
2023-05-06T12:11:43.138Z,101909.81
2023-05-06T12:14:12.632Z,101914.41
2023-05-06T12:16:40.912Z,101913.56
2023-05-06T12:19:08.985Z,101914.53
2023-05-06T12:21:40.325Z,101920.41
2023-05-06T12:24:08.416Z,101928.22
2023-05-06T12:26:47.236Z,101929.06
2023-05-06T12:29:19.224Z,101922.97
2023-05-06T12:31:48.313Z,101927.97
2023-05-06T12:34:17.918Z,101939.88
2023-05-06T12:36:48.182Z,101936.28
2023-05-06T12:39:17.527Z,101932.16
2023-05-06T12:41:46.354Z,101930.16
2023-05-06T12:44:34.057Z,101929.44
2023-05-06T12:47:03.402Z,101931.28
2023-05-06T12:49:46.904Z,101930.19
2023-05-06T12:52:16.730Z,101926.41
2023-05-06T12:54:44.664Z,101926.53
2023-05-06T12:57:12.802Z,101936.78
2023-05-06T12:59:40.751Z,101934.69
2023-05-06T13:02:08.704Z,101941.75
2023-05-06T13:04:36.640Z,101939.44
2023-05-06T13:07:04.581Z,101930.66
2023-05-06T13:09:34.107Z,101939.69
2023-05-06T13:12:02.438Z,101944.44
2023-05-06T13:14:30.323Z,101944.56
2023-05-06T13:17:01.024Z,101945.28
2023-05-06T13:19:32.737Z,101956.28
2023-05-06T13:22:01.302Z,101955.06
2023-05-06T13:24:29.544Z,101948.69
2023-05-06T13:27:00.881Z,101958.72
2023-05-06T13:29:29.600Z,101954.94
2023-05-06T13:31:57.880Z,101953.38
2023-05-06T13:34:26.082Z,101949.81
2023-05-06T13:36:54.577Z,101943.56
2023-05-06T13:39:22.729Z,101940.16
2023-05-06T13:41:51.093Z,101933.09
2023-05-06T13:44:21.475Z,101946.63
2023-05-06T13:46:49.722Z,101945.13
2023-05-06T13:49:17.929Z,101954.69
2023-05-06T13:51:45.850Z,101954.63
2023-05-06T13:54:13.897Z,101955.53
2023-05-06T13:56:41.803Z,101945.28
2023-05-06T13:59:11.785Z,101952.13
2023-05-06T14:01:41.630Z,101948.44
2023-05-06T14:04:09.971Z,101947.00
2023-05-06T14:06:38.757Z,101945.28
2023-05-06T14:09:06.761Z,101949.19
2023-05-06T14:11:34.671Z,101954.06
2023-05-06T14:14:02.713Z,101939.91
2023-05-06T14:16:30.697Z,101941.03
2023-05-06T14:19:01.077Z,101932.34
2023-05-06T14:21:29.001Z,101939.28
2023-05-06T14:23:57.008Z,101939.19
2023-05-06T14:26:25.131Z,101944.56
2023-05-06T14:28:53.483Z,101940.41
2023-05-06T14:31:21.491Z,101944.81
2023-05-06T14:33:49.411Z,101941.16
2023-05-06T14:36:20.856Z,101941.78
2023-05-06T14:38:48.814Z,101940.16
2023-05-06T14:41:16.713Z,101945.19
2023-05-06T14:43:44.744Z,101941.28
2023-05-06T14:46:14.557Z,101932.34
2023-05-06T14:48:43.385Z,101937.59
2023-05-06T14:51:11.357Z,101940.66
2023-05-06T14:53:40.649Z,101932.25
2023-05-06T14:56:10.504Z,101935.41
2023-05-06T14:58:39.254Z,101938.94
2023-05-06T15:01:07.311Z,101937.84
2023-05-06T15:03:36.341Z,101944.56
2023-05-06T15:06:04.538Z,101941.53
2023-05-06T15:08:32.687Z,101940.59
2023-05-06T15:11:04.103Z,101941.72
2023-05-06T15:13:32.340Z,101944.16
2023-05-06T15:16:00.317Z,101946.13
2023-05-06T15:18:28.223Z,101935.88
2023-05-06T15:20:58.667Z,101933.81
2023-05-06T15:23:26.644Z,101936.47
2023-05-06T15:25:54.639Z,101935.88
2023-05-06T15:28:24.796Z,101942.19
2023-05-06T15:30:52.814Z,101941.72
2023-05-06T15:33:20.818Z,101938.16
2023-05-06T15:35:48.693Z,101939.66
2023-05-06T15:38:16.573Z,101951.25
2023-05-06T15:40:50.943Z,101950.41
2023-05-06T15:43:23.611Z,101953.91
2023-05-06T15:45:53.666Z,101954.28
2023-05-06T15:48:24.355Z,101949.88
2023-05-06T15:50:52.267Z,101942.81
2023-05-06T15:53:20.306Z,101945.66
2023-05-06T15:55:56.643Z,101946.69
2023-05-06T15:58:25.412Z,101945.28
2023-05-06T16:00:54.745Z,101944.38
2023-05-06T16:03:22.780Z,101945.38
2023-05-06T16:05:50.879Z,101943.88
2023-05-06T16:08:18.793Z,101938.03
2023-05-06T16:10:46.801Z,101933.19
2023-05-06T16:13:14.838Z,101943.28
2023-05-06T16:15:42.882Z,101940.63
2023-05-06T16:18:12.374Z,101942.34
2023-05-06T16:20:40.662Z,101939.19
2023-05-06T16:23:08.613Z,101937.88
2023-05-06T16:25:38.238Z,101950.16
2023-05-06T16:28:06.636Z,101947.13
2023-05-06T16:30:34.526Z,101956.16
2023-05-06T16:33:02.490Z,101960.25
2023-05-06T16:35:31.961Z,101953.03
2023-05-06T16:37:59.975Z,101959.03
2023-05-06T16:40:28.750Z,101950.50
2023-05-06T16:42:56.732Z,101960.09
2023-05-06T16:45:24.666Z,101963.38
2023-05-06T16:47:52.834Z,101959.63
2023-05-06T16:50:21.001Z,101957.41
2023-05-06T16:52:50.281Z,101958.34
2023-05-06T16:55:18.424Z,101959.22
2023-05-06T16:57:46.298Z,101964.09
2023-05-06T17:00:16.527Z,101959.94
2023-05-06T17:02:44.513Z,101959.22
2023-05-06T17:05:12.482Z,101958.56
2023-05-06T17:07:40.397Z,101962.59
2023-05-06T17:10:10.929Z,101963.22
2023-05-06T17:12:39.266Z,101955.88
2023-05-06T17:15:08.491Z,101962.19
2023-05-06T17:17:36.468Z,101954.31
2023-05-06T17:20:05.311Z,101958.25
2023-05-06T17:22:33.226Z,101952.34
2023-05-06T17:25:01.174Z,101963.38
2023-05-06T17:27:30.603Z,101958.72
2023-05-06T17:29:58.504Z,101960.75
2023-05-06T17:32:26.456Z,101956.06
2023-05-06T17:34:54.423Z,101955.06
2023-05-06T17:37:22.304Z,101952.88
2023-05-06T17:39:51.021Z,101949.38
2023-05-06T17:42:18.948Z,101963.63
2023-05-06T17:44:48.353Z,101960.97
2023-05-06T17:47:17.497Z,101952.75
2023-05-06T17:49:45.703Z,101954.75
2023-05-06T17:52:13.629Z,101951.31
2023-05-06T17:54:41.520Z,101955.75
2023-05-06T17:57:09.435Z,101960.03
2023-05-06T17:59:37.559Z,101956.59
2023-05-06T18:02:08.482Z,101950.88
2023-05-06T18:04:36.563Z,101951.00
2023-05-06T18:07:04.498Z,101962.56
2023-05-06T18:09:32.806Z,101958.94
2023-05-06T18:12:01.060Z,101970.84
2023-05-06T18:14:29.046Z,101968.56
2023-05-06T18:16:57.639Z,101973.00
2023-05-06T18:19:27.165Z,101975.81
2023-05-06T18:21:55.061Z,101981.03
2023-05-06T18:24:23.416Z,101981.50
2023-05-06T18:26:51.324Z,101982.56
2023-05-06T18:29:19.240Z,101979.56
2023-05-06T18:31:47.245Z,101984.78
2023-05-06T18:34:15.334Z,101987.78
2023-05-06T18:36:44.616Z,101985.84
2023-05-06T18:39:12.504Z,101987.94
2023-05-06T18:41:41.346Z,101993.16
2023-05-06T18:44:09.222Z,102001.69
2023-05-06T18:46:37.171Z,101999.66
2023-05-06T18:49:05.051Z,102006.19
2023-05-06T18:51:33.001Z,102013.38
2023-05-06T18:54:02.304Z,102005.44
2023-05-06T18:56:30.407Z,102009.13
2023-05-06T18:58:58.346Z,102001.78
2023-05-06T19:01:26.618Z,102002.00
2023-05-06T19:03:54.695Z,102001.34
2023-05-06T19:06:22.597Z,102008.06
2023-05-06T19:08:50.797Z,101996.22
2023-05-06T19:11:20.130Z,101997.41
2023-05-06T19:13:48.012Z,101999.69
2023-05-06T19:16:15.905Z,102006.56
2023-05-06T19:18:43.863Z,102002.03
2023-05-06T19:21:12.253Z,102000.56
2023-05-06T19:23:40.297Z,102007.09
2023-05-06T19:26:10.935Z,102011.97
2023-05-06T19:28:41.038Z,102016.03
2023-05-06T19:31:09.518Z,102010.88
2023-05-06T19:33:37.588Z,102014.41
2023-05-06T19:36:06.313Z,102017.00
2023-05-06T19:38:34.690Z,102013.13
2023-05-06T19:41:02.646Z,102027.00
2023-05-06T19:43:30.604Z,102022.47
2023-05-06T19:45:59.967Z,102019.31
2023-05-06T19:48:27.859Z,102024.56
2023-05-06T19:50:55.774Z,102020.09
2023-05-06T19:53:24.110Z,102016.63
2023-05-06T19:55:52.112Z,102014.91
2023-05-06T19:58:20.331Z,102017.00
2023-05-06T20:00:48.283Z,102016.16
2023-05-06T20:03:18.044Z,102013.38
2023-05-06T20:05:46.084Z,102017.03
2023-05-06T20:08:14.008Z,102019.31
2023-05-06T20:10:41.891Z,102024.25
2023-05-06T20:13:27.915Z,102025.47
2023-05-06T20:15:57.398Z,102028.28
2023-05-06T20:18:27.252Z,102019.63
2023-05-06T20:20:55.165Z,102021.38
2023-05-06T20:23:24.959Z,102021.16
2023-05-06T20:25:53.178Z,102023.94
2023-05-06T20:28:21.191Z,102019.19
2023-05-06T20:30:49.230Z,102017.53
2023-05-06T20:33:17.161Z,102027.69
2023-05-06T20:35:46.785Z,102028.09
2023-05-06T20:38:16.973Z,102035.66
2023-05-06T20:40:44.918Z,102038.47
2023-05-06T20:43:12.809Z,102043.59
2023-05-06T20:45:40.858Z,102039.03
2023-05-06T20:48:09.005Z,102047.00
2023-05-06T20:50:37.162Z,102042.97
2023-05-06T20:53:06.492Z,102037.63
2023-05-06T20:55:34.445Z,102038.88
2023-05-06T20:58:02.328Z,102036.50
2023-05-06T21:00:30.272Z,102045.72
2023-05-06T21:02:58.290Z,102039.94
2023-05-06T21:05:26.453Z,102040.44
2023-05-06T21:07:54.440Z,102056.09
2023-05-06T21:10:23.733Z,102054.56
2023-05-06T21:12:51.940Z,102055.50
2023-05-06T21:15:20.364Z,102045.19
2023-05-06T21:17:48.408Z,102051.31
2023-05-06T21:20:16.655Z,102045.13
2023-05-06T21:22:44.584Z,102049.63
2023-05-06T21:25:13.625Z,102054.81
2023-05-06T21:27:43.113Z,102051.59
2023-05-06T21:30:11.621Z,102051.78
2023-05-06T21:32:39.560Z,102056.13
2023-05-06T21:35:08.453Z,102065.13
2023-05-06T21:37:36.689Z,102059.84
2023-05-06T21:40:05.172Z,102055.25
2023-05-06T21:42:33.077Z,102057.44
2023-05-06T21:45:02.437Z,102056.31
2023-05-06T21:47:30.429Z,102058.97
2023-05-06T21:49:58.416Z,102051.00
2023-05-06T21:52:26.445Z,102052.09
2023-05-06T21:54:54.768Z,102045.47
2023-05-06T21:57:22.677Z,102050.78
2023-05-06T21:59:51.807Z,102044.34
2023-05-06T22:02:21.181Z,102042.19
2023-05-06T22:04:49.193Z,102046.50
2023-05-06T22:07:17.096Z,102046.06
2023-05-06T22:09:45.086Z,102049.88
2023-05-06T22:12:13.302Z,102046.84
2023-05-06T22:14:41.957Z,102047.31
2023-05-06T22:17:10.595Z,102048.22
2023-05-06T22:19:41.848Z,102049.03
2023-05-06T22:22:10.147Z,102047.78
2023-05-06T22:24:38.069Z,102044.34
2023-05-06T22:27:05.981Z,102040.88
2023-05-06T22:29:35.048Z,102047.78
2023-05-06T22:32:03.336Z,102043.25
2023-05-06T22:34:31.417Z,102040.06
2023-05-06T22:37:01.168Z,102045.66
2023-05-06T22:39:29.642Z,102046.59
2023-05-06T22:41:57.589Z,102041.81
2023-05-06T22:44:25.482Z,102052.09
2023-05-06T22:46:53.380Z,102046.06
2023-05-06T22:49:21.271Z,102051.91
2023-05-06T22:51:49.209Z,102055.53
2023-05-06T22:54:18.506Z,102055.72
2023-05-06T22:56:46.436Z,102058.09
2023-05-06T22:59:14.348Z,102057.66
2023-05-06T23:01:42.481Z,102055.16
2023-05-06T23:04:10.825Z,102047.84
2023-05-06T23:06:40.017Z,102046.94
2023-05-06T23:09:08.012Z,102038.78
2023-05-06T23:11:37.328Z,102049.94
2023-05-06T23:14:06.629Z,102055.53
2023-05-06T23:16:34.738Z,102061.41
2023-05-06T23:19:02.669Z,102056.31
2023-05-06T23:21:30.578Z,102067.41
2023-05-06T23:23:58.503Z,102070.41
2023-05-06T23:26:26.713Z,102064.88
2023-05-06T23:28:56.072Z,102067.63
2023-05-06T23:31:24.061Z,102061.38
2023-05-06T23:33:51.989Z,102066.38
2023-05-06T23:36:19.967Z,102071.97
2023-05-06T23:38:47.853Z,102073.25
2023-05-06T23:41:15.752Z,102074.06
2023-05-06T23:43:43.642Z,102069.31
2023-05-06T23:46:12.993Z,102083.72
2023-05-06T23:48:40.909Z,102075.38
2023-05-06T23:51:08.799Z,102082.00
2023-05-06T23:53:37.333Z,102090.81
2023-05-06T23:56:05.773Z,102085.03
2023-05-06T23:58:33.706Z,102079.84
